createdAt,value
2022-11-01T00:01:59.090Z,75.96
2022-11-01T00:04:26.122Z,76.21
2022-11-01T00:06:52.814Z,74.32
2022-11-01T00:09:19.533Z,74.85
2022-11-01T00:11:46.512Z,74.94
2022-11-01T00:14:15.845Z,73.52
2022-11-01T00:16:42.820Z,74.21
2022-11-01T00:19:10.038Z,74.89
2022-11-01T00:21:36.696Z,73.71
2022-11-01T00:24:03.478Z,73.49
2022-11-01T00:26:30.079Z,72.30
2022-11-01T00:28:56.894Z,72.27
2022-11-01T00:31:23.902Z,72.62
2022-11-01T00:33:50.702Z,72.61
2022-11-01T00:36:17.485Z,72.04
2022-11-01T00:38:44.202Z,72.51
2022-11-01T00:41:10.830Z,73.01
2022-11-01T00:43:37.585Z,73.26
2022-11-01T00:46:04.951Z,72.69
2022-11-01T00:48:31.997Z,71.03
2022-11-01T00:50:58.689Z,70.67
2022-11-01T00:53:25.431Z,71.99
2022-11-01T00:55:52.329Z,71.09
2022-11-01T00:58:19.123Z,70.83
2022-11-01T01:00:48.048Z,71.94
2022-11-01T01:03:15.184Z,72.84
2022-11-01T01:05:41.799Z,72.89
2022-11-01T01:08:08.469Z,72.67
2022-11-01T01:10:35.382Z,70.28
2022-11-01T01:13:02.419Z,71.48
2022-11-01T01:15:29.233Z,71.20
2022-11-01T01:17:55.927Z,72.24
2022-11-01T01:20:23.172Z,72.70
2022-11-01T01:22:50.222Z,73.18
2022-11-01T01:25:17.525Z,73.78
2022-11-01T01:27:44.144Z,72.29
2022-11-01T01:30:11.383Z,73.46
2022-11-01T01:32:38.026Z,74.61
2022-11-01T01:35:05.099Z,72.28
2022-11-01T01:37:31.755Z,73.22
2022-11-01T01:39:58.632Z,73.92
2022-11-01T01:42:28.474Z,73.44
2022-11-01T01:44:55.257Z,73.75
2022-11-01T01:47:23.842Z,73.81
2022-11-01T01:50:13.732Z,71.56
2022-11-01T01:52:47.998Z,72.01
2022-11-01T01:55:18.822Z,72.65
2022-11-01T01:57:46.073Z,73.80
2022-11-01T02:00:13.593Z,72.66
2022-11-01T02:02:42.180Z,72.82
2022-11-01T02:05:37.211Z,71.65
2022-11-01T02:08:05.570Z,73.91
2022-11-01T02:10:33.020Z,72.96
2022-11-01T02:12:59.530Z,72.47
2022-11-01T02:15:36.834Z,73.99
2022-11-01T02:18:16.234Z,74.21
2022-11-01T02:21:16.041Z,73.43
2022-11-01T02:24:01.465Z,74.09
2022-11-01T02:26:46.372Z,75.05
2022-11-01T02:29:41.841Z,73.32
2022-11-01T02:32:17.682Z,73.55
2022-11-01T02:35:03.100Z,73.25
2022-11-01T02:37:44.142Z,74.25
2022-11-01T02:40:17.325Z,73.71
2022-11-01T02:42:48.657Z,73.72
2022-11-01T02:45:29.569Z,73.81
2022-11-01T02:47:58.006Z,74.16
2022-11-01T02:50:27.969Z,74.76
2022-11-01T02:52:55.369Z,74.14
2022-11-01T02:55:30.142Z,74.95
2022-11-01T02:58:06.552Z,73.99
2022-11-01T03:00:35.635Z,73.05
2022-11-01T03:03:16.760Z,72.84
2022-11-01T03:05:49.394Z,75.01
2022-11-01T03:08:20.726Z,74.63
2022-11-01T03:11:05.857Z,75.29
2022-11-01T03:13:47.751Z,74.61
2022-11-01T03:16:20.311Z,74.65
2022-11-01T03:19:09.211Z,74.33
2022-11-01T03:21:47.643Z,75.13
2022-11-01T03:24:22.944Z,74.47
2022-11-01T03:27:01.039Z,73.85
2022-11-01T03:29:28.814Z,73.32
2022-11-01T03:31:56.811Z,74.19
2022-11-01T03:34:25.249Z,73.80
2022-11-01T03:37:00.668Z,73.99
2022-11-01T03:39:36.886Z,73.13
2022-11-01T03:42:07.805Z,74.19
2022-11-01T03:44:39.616Z,75.31
2022-11-01T03:47:06.413Z,74.81
2022-11-01T03:49:32.991Z,74.26
2022-11-01T03:51:59.678Z,73.48
2022-11-01T03:54:27.308Z,74.00
2022-11-01T03:56:54.034Z,73.32
2022-11-01T03:59:20.937Z,73.13
2022-11-01T04:01:47.688Z,74.26
2022-11-01T04:04:14.438Z,72.26
2022-11-01T04:06:41.167Z,73.26
2022-11-01T04:09:08.066Z,73.52
2022-11-01T04:11:34.702Z,74.06
2022-11-01T04:14:21.563Z,73.06
2022-11-01T04:17:06.447Z,73.43
2022-11-01T04:19:51.657Z,72.49
2022-11-01T04:22:20.706Z,74.57
2022-11-01T04:24:50.284Z,73.81
2022-11-01T04:27:16.902Z,74.14
2022-11-01T04:29:43.501Z,73.82
2022-11-01T04:32:10.075Z,73.67
2022-11-01T04:34:42.776Z,73.80
2022-11-01T04:37:10.231Z,73.97
2022-11-01T04:39:37.369Z,74.31
2022-11-01T04:42:04.301Z,72.36
2022-11-01T04:44:31.044Z,72.59
2022-11-01T04:46:57.653Z,72.35
2022-11-01T04:49:24.288Z,71.89
2022-11-01T04:51:50.949Z,70.94
2022-11-01T04:54:17.584Z,73.07
2022-11-01T04:56:44.234Z,72.40
2022-11-01T04:59:10.785Z,71.94
2022-11-01T05:01:37.448Z,72.65
2022-11-01T05:04:04.333Z,72.73
2022-11-01T05:06:30.977Z,72.15
2022-11-01T05:08:57.603Z,73.48
2022-11-01T05:11:25.860Z,72.56
2022-11-01T05:13:52.875Z,72.55
2022-11-01T05:16:20.640Z,73.00
2022-11-01T05:18:48.425Z,72.69
2022-11-01T05:21:15.106Z,72.71
2022-11-01T05:23:41.769Z,72.64
2022-11-01T05:26:08.498Z,71.53
2022-11-01T05:28:35.070Z,71.81
2022-11-01T05:31:01.778Z,71.28
2022-11-01T05:33:28.386Z,71.09
2022-11-01T05:35:55.026Z,71.85
2022-11-01T05:38:21.613Z,72.05
2022-11-01T05:40:48.429Z,71.72
2022-11-01T05:43:15.074Z,73.15
2022-11-01T05:45:41.949Z,72.19
2022-11-01T05:48:09.348Z,71.83
2022-11-01T05:50:35.907Z,70.10
2022-11-01T05:53:07.408Z,71.93
2022-11-01T05:55:34.934Z,71.61
2022-11-01T05:58:01.652Z,71.92
2022-11-01T06:00:28.393Z,72.79
2022-11-01T06:02:58.089Z,72.12
2022-11-01T06:05:25.847Z,71.02
2022-11-01T06:07:53.322Z,71.32
2022-11-01T06:10:20.117Z,71.75
2022-11-01T06:12:46.747Z,72.55
2022-11-01T06:15:13.547Z,72.67
2022-11-01T06:17:40.156Z,72.17
2022-11-01T06:20:07.193Z,72.96
2022-11-01T06:22:38.656Z,72.30
2022-11-01T06:25:06.162Z,71.84
2022-11-01T06:27:32.654Z,70.33
2022-11-01T06:29:59.290Z,71.43
2022-11-01T06:32:25.910Z,71.93
2022-11-01T06:34:52.534Z,71.87
2022-11-01T06:37:19.111Z,71.19
2022-11-01T06:39:45.891Z,71.11
2022-11-01T06:42:12.445Z,71.02
2022-11-01T06:44:39.070Z,71.00
2022-11-01T06:47:05.748Z,70.25
2022-11-01T06:49:32.372Z,69.90
2022-11-01T06:51:58.980Z,69.64
2022-11-01T06:54:25.894Z,69.77
2022-11-01T06:56:52.514Z,70.21
2022-11-01T06:59:19.303Z,69.33
2022-11-01T07:01:46.108Z,69.47
2022-11-01T07:04:13.156Z,68.60
2022-11-01T07:06:39.923Z,67.43
2022-11-01T07:09:06.722Z,68.25
2022-11-01T07:11:33.786Z,68.29
2022-11-01T07:14:00.431Z,67.95
2022-11-01T07:16:27.405Z,68.57
2022-11-01T07:18:54.052Z,68.78
2022-11-01T07:21:22.004Z,68.30
2022-11-01T07:23:49.226Z,67.52
2022-11-01T07:26:16.170Z,67.35
2022-11-01T07:28:42.865Z,66.85
2022-11-01T07:31:09.468Z,65.65
2022-11-01T07:33:36.302Z,66.07
2022-11-01T07:36:04.417Z,66.37
2022-11-01T07:38:31.300Z,66.36
2022-11-01T07:40:58.274Z,67.73
2022-11-01T07:43:24.965Z,66.20
2022-11-01T07:45:51.689Z,67.27
2022-11-01T07:48:19.626Z,67.22
2022-11-01T07:50:46.786Z,67.35
2022-11-01T07:53:18.485Z,66.14
2022-11-01T07:55:46.223Z,66.64
2022-11-01T07:58:13.704Z,66.06
2022-11-01T08:00:44.390Z,66.04
2022-11-01T08:03:16.140Z,66.38
2022-11-01T08:05:43.892Z,66.29
2022-11-01T08:08:11.113Z,66.82
2022-11-01T08:10:39.177Z,66.30
2022-11-01T08:13:25.246Z,66.18
2022-11-01T08:15:53.260Z,66.17
2022-11-01T08:18:22.588Z,65.72
2022-11-01T08:20:49.523Z,64.79
2022-11-01T08:23:16.644Z,65.54
2022-11-01T08:25:43.329Z,65.38
2022-11-01T08:28:16.060Z,64.64
2022-11-01T08:30:44.145Z,64.90
2022-11-01T08:33:11.593Z,64.47
2022-11-01T08:35:55.460Z,63.99
2022-11-01T08:38:22.093Z,64.84
2022-11-01T08:40:48.790Z,64.22
2022-11-01T08:43:15.543Z,64.33
2022-11-01T08:45:42.131Z,63.50
2022-11-01T08:48:09.895Z,64.08
2022-11-01T08:50:36.523Z,64.52
2022-11-01T08:53:13.840Z,63.11
2022-11-01T08:55:40.737Z,62.95
2022-11-01T08:58:08.105Z,63.50
2022-11-01T09:00:35.263Z,62.53
2022-11-01T09:03:02.010Z,62.94
2022-11-01T09:05:31.280Z,63.41
2022-11-01T09:08:00.728Z,62.43
2022-11-01T09:10:29.271Z,63.06
2022-11-01T09:12:55.921Z,63.36
2022-11-01T09:15:22.653Z,62.03
2022-11-01T09:17:49.252Z,63.07
2022-11-01T09:20:15.982Z,62.58
2022-11-01T09:22:42.608Z,63.16
2022-11-01T09:25:09.814Z,62.23
2022-11-01T09:27:36.374Z,62.25
2022-11-01T09:30:04.851Z,62.55
2022-11-01T09:32:31.528Z,61.95
2022-11-01T09:34:58.141Z,62.40
2022-11-01T09:37:24.767Z,62.63
2022-11-01T09:39:51.402Z,62.97
2022-11-01T09:42:24.101Z,62.72
2022-11-01T09:44:55.069Z,62.84
2022-11-01T09:47:25.460Z,62.61
2022-11-01T09:50:16.809Z,61.83
2022-11-01T09:52:43.605Z,61.51
2022-11-01T09:55:15.372Z,61.62
2022-11-01T09:58:01.642Z,60.83
2022-11-01T10:00:35.938Z,60.58
2022-11-01T10:03:30.171Z,61.15
2022-11-01T10:06:02.395Z,60.85
2022-11-01T10:08:37.773Z,60.95
2022-11-01T10:11:45.882Z,60.69
2022-11-01T10:14:39.966Z,60.69
2022-11-01T10:17:09.571Z,61.25
2022-11-01T10:19:38.483Z,60.67
2022-11-01T10:22:12.032Z,60.26
2022-11-01T10:24:52.647Z,59.65
2022-11-01T10:27:53.111Z,59.53
2022-11-01T10:30:20.402Z,58.17
2022-11-01T10:32:49.881Z,55.08
2022-11-01T10:35:34.858Z,55.02
2022-11-01T10:38:38.089Z,53.63
2022-11-01T10:41:22.619Z,52.10
2022-11-01T10:43:57.872Z,52.62
2022-11-01T10:46:28.280Z,52.64
2022-11-01T10:49:01.703Z,53.53
2022-11-01T10:51:31.463Z,54.17
2022-11-01T10:54:02.973Z,54.91
2022-11-01T10:56:41.933Z,55.32
2022-11-01T10:59:25.667Z,55.49
2022-11-01T11:01:55.014Z,56.90
2022-11-01T11:04:24.710Z,56.06
2022-11-01T11:06:52.010Z,56.68
2022-11-01T11:09:28.194Z,55.76
2022-11-01T11:12:02.070Z,56.74
2022-11-01T11:14:32.261Z,56.66
2022-11-01T11:17:00.966Z,56.52
2022-11-01T11:19:30.643Z,55.76
2022-11-01T11:21:59.233Z,55.81
2022-11-01T11:24:28.658Z,55.89
2022-11-01T11:26:56.749Z,56.12
2022-11-01T11:29:48.950Z,55.04
2022-11-01T11:32:20.513Z,55.41
2022-11-01T11:34:55.290Z,53.91
2022-11-01T11:37:24.810Z,52.77
2022-11-01T11:40:03.367Z,51.93
2022-11-01T11:42:33.394Z,49.75
2022-11-01T11:45:23.140Z,48.90
2022-11-01T11:47:50.408Z,49.38
2022-11-01T11:50:19.925Z,47.75
2022-11-01T11:53:14.946Z,47.02
2022-11-01T11:55:45.456Z,44.99
2022-11-01T11:58:20.287Z,41.85
2022-11-01T12:01:08.767Z,39.71
2022-11-01T12:03:57.531Z,39.67
2022-11-01T12:06:27.026Z,41.70
2022-11-01T12:08:57.474Z,41.96
2022-11-01T12:11:25.524Z,42.42
2022-11-01T12:14:03.809Z,43.79
2022-11-01T12:16:39.050Z,46.49
2022-11-01T12:19:06.444Z,48.73
2022-11-01T12:21:43.522Z,48.82
2022-11-01T12:24:22.655Z,49.43
2022-11-01T12:26:51.976Z,49.18
2022-11-01T12:29:40.506Z,47.47
2022-11-01T12:32:15.740Z,48.49
2022-11-01T12:34:46.869Z,48.69
2022-11-01T12:37:21.319Z,48.17
2022-11-01T12:40:15.292Z,48.24
2022-11-01T12:42:51.356Z,48.15
2022-11-01T12:45:24.405Z,48.13
2022-11-01T12:47:57.183Z,47.82
2022-11-01T12:50:50.255Z,48.29
2022-11-01T12:53:22.244Z,47.25
2022-11-01T12:55:48.905Z,46.04
2022-11-01T12:58:18.704Z,45.07
2022-11-01T13:00:54.848Z,44.74
2022-11-01T13:03:34.567Z,43.37
2022-11-01T13:06:16.206Z,43.29
2022-11-01T13:09:01.137Z,43.36
2022-11-01T13:11:40.047Z,43.89
2022-11-01T13:14:31.723Z,45.16
2022-11-01T13:17:25.717Z,44.39
2022-11-01T13:20:10.565Z,45.20
2022-11-01T13:22:47.474Z,44.89
2022-11-01T13:25:24.072Z,44.34
2022-11-01T13:27:53.385Z,44.26
2022-11-01T13:30:20.895Z,43.72
2022-11-01T13:33:20.241Z,42.52
2022-11-01T13:36:26.137Z,41.36
2022-11-01T13:39:38.662Z,38.70
2022-11-01T13:42:19.107Z,38.75
2022-11-01T13:44:55.062Z,39.09
2022-11-01T13:47:29.206Z,38.65
2022-11-01T13:50:04.858Z,39.12
2022-11-01T13:52:33.809Z,40.96
2022-11-01T13:55:23.302Z,41.29
2022-11-01T13:57:50.215Z,42.12
2022-11-01T14:00:38.276Z,41.26
2022-11-01T14:03:18.447Z,41.12
2022-11-01T14:05:46.390Z,41.54
2022-11-01T14:08:15.590Z,41.05
2022-11-01T14:10:46.886Z,40.96
2022-11-01T14:13:19.398Z,40.62
2022-11-01T14:15:55.387Z,40.49
2022-11-01T14:18:22.047Z,41.20
2022-11-01T14:20:50.929Z,41.36
2022-11-01T14:23:29.922Z,41.39
2022-11-01T14:26:18.559Z,41.36
2022-11-01T14:28:47.059Z,42.41
2022-11-01T14:31:15.752Z,42.53
2022-11-01T14:33:44.032Z,41.61
2022-11-01T14:36:13.079Z,41.95
2022-11-01T14:38:54.643Z,41.48
2022-11-01T14:41:24.514Z,42.13
2022-11-01T14:46:39.087Z,41.50
2022-11-01T14:49:35.138Z,40.86
2022-11-01T14:52:08.541Z,40.33
2022-11-01T14:54:46.626Z,40.00
2022-11-01T14:57:28.039Z,40.18
2022-11-01T14:59:56.308Z,40.23
2022-11-01T15:02:24.145Z,40.55
2022-11-01T15:04:57.615Z,40.19
2022-11-01T15:07:30.879Z,40.41
2022-11-01T15:10:11.867Z,40.88
2022-11-01T15:12:48.402Z,40.79
2022-11-01T15:15:21.383Z,41.26
2022-11-01T15:17:54.797Z,41.25
2022-11-01T15:20:22.869Z,41.30
2022-11-01T15:22:54.437Z,41.12
2022-11-01T15:25:26.439Z,41.12
2022-11-01T15:27:55.475Z,41.41
2022-11-01T15:30:24.032Z,40.98
2022-11-01T15:33:12.044Z,40.62
2022-11-01T15:35:38.806Z,40.47
2022-11-01T15:38:20.579Z,40.98
2022-11-01T15:40:50.272Z,40.94
2022-11-01T15:43:19.469Z,40.96
2022-11-01T15:45:52.136Z,41.35
2022-11-01T15:48:22.670Z,41.84
2022-11-01T15:50:53.560Z,41.52
2022-11-01T15:53:26.849Z,42.27
2022-11-01T15:56:03.517Z,41.82
2022-11-01T15:58:39.829Z,42.21
2022-11-01T16:01:14.743Z,42.31
2022-11-01T16:03:48.419Z,42.91
2022-11-01T16:06:45.210Z,42.91
2022-11-01T16:09:38.327Z,44.96
2022-11-01T16:12:14.605Z,46.42
2022-11-01T16:14:41.856Z,47.26
2022-11-01T16:17:31.761Z,48.15
2022-11-01T16:19:58.814Z,47.97
2022-11-01T16:22:38.282Z,49.83
2022-11-01T16:25:10.048Z,51.17
2022-11-01T16:27:57.351Z,49.90
2022-11-01T16:30:39.069Z,50.51
2022-11-01T16:33:20.982Z,49.60
2022-11-01T16:35:53.421Z,51.25
2022-11-01T16:38:33.034Z,51.42
2022-11-01T16:41:02.042Z,51.63
2022-11-01T16:43:31.489Z,51.22
2022-11-01T16:45:58.953Z,52.01
2022-11-01T16:48:31.429Z,54.60
2022-11-01T16:50:59.732Z,54.78
2022-11-01T16:53:30.356Z,54.74
2022-11-01T16:56:34.478Z,56.35
2022-11-01T16:58:57.448Z,55.65
2022-11-01T17:01:35.377Z,55.60
2022-11-01T17:04:03.007Z,55.14
2022-11-01T17:06:32.308Z,55.12
2022-11-01T17:09:01.381Z,54.97
2022-11-01T17:11:27.978Z,55.70
2022-11-01T17:13:54.650Z,55.89
2022-11-01T17:16:27.444Z,56.12
2022-11-01T17:18:57.570Z,55.83
2022-11-01T17:21:27.797Z,55.95
2022-11-01T17:23:54.953Z,56.19
2022-11-01T17:26:23.808Z,54.74
2022-11-01T17:28:52.447Z,55.80
2022-11-01T17:31:19.361Z,55.10
2022-11-01T17:33:46.046Z,55.24
2022-11-01T17:36:17.178Z,55.63
2022-11-01T17:38:44.941Z,58.07
2022-11-01T17:41:17.925Z,58.50
2022-11-01T17:43:44.562Z,56.92
2022-11-01T17:46:24.529Z,56.98
2022-11-01T17:48:51.257Z,58.97
2022-11-01T17:51:18.067Z,58.51
2022-11-01T17:53:44.811Z,58.11
2022-11-01T17:56:11.387Z,57.37
2022-11-01T17:58:38.054Z,58.06
2022-11-01T18:01:05.037Z,59.21
2022-11-01T18:03:31.871Z,59.74
2022-11-01T18:06:01.836Z,59.53
2022-11-01T18:08:33.477Z,59.75
2022-11-01T18:11:48.324Z,60.45
2022-11-01T18:14:22.301Z,61.11
2022-11-01T18:16:57.935Z,59.84
2022-11-01T18:19:36.779Z,61.19
2022-11-01T18:22:28.322Z,59.41
2022-11-01T18:25:02.663Z,58.13
2022-11-01T18:27:37.739Z,57.59
2022-11-01T18:30:19.569Z,57.54
2022-11-01T18:32:54.016Z,58.09
2022-11-01T18:35:30.667Z,58.27
2022-11-01T18:38:14.719Z,57.01
2022-11-01T18:40:56.782Z,57.43
2022-11-01T18:43:24.262Z,57.78
2022-11-01T18:46:19.097Z,58.00
2022-11-01T18:48:37.582Z,57.92
2022-11-01T18:51:12.963Z,57.61
2022-11-01T18:53:39.629Z,58.59
2022-11-01T18:56:25.710Z,57.77
2022-11-01T18:58:54.045Z,57.05
2022-11-01T19:01:31.760Z,56.83
2022-11-01T19:04:01.972Z,56.37
2022-11-01T19:06:31.519Z,57.41
2022-11-01T19:09:09.694Z,57.68
2022-11-01T19:11:36.189Z,57.98
2022-11-01T19:14:03.173Z,58.69
2022-11-01T19:16:29.851Z,59.05
2022-11-01T19:18:56.458Z,61.56
2022-11-01T19:21:23.942Z,61.32
2022-11-01T19:23:54.749Z,59.50
2022-11-01T19:26:27.112Z,59.33
2022-11-01T19:28:54.082Z,59.39
2022-11-01T19:31:32.856Z,59.41
2022-11-01T19:34:02.986Z,59.41
2022-11-01T19:36:40.807Z,59.17
2022-11-01T19:39:29.503Z,58.91
2022-11-01T19:42:06.497Z,57.98
2022-11-01T19:44:33.301Z,58.76
2022-11-01T19:47:22.574Z,58.72
2022-11-01T19:49:49.420Z,59.12
2022-11-01T19:52:24.713Z,58.55
2022-11-01T19:54:53.253Z,59.37
2022-11-01T19:57:34.767Z,59.09
2022-11-01T20:00:11.174Z,58.13
2022-11-01T20:02:38.634Z,60.37
2022-11-01T20:05:23.750Z,60.43
2022-11-01T20:07:51.019Z,60.60
2022-11-01T20:10:18.330Z,59.75
2022-11-01T20:12:45.174Z,59.23
2022-11-01T20:15:11.769Z,60.10
2022-11-01T20:17:38.441Z,59.27
2022-11-01T20:20:06.491Z,58.85
2022-11-01T20:22:33.208Z,57.99
2022-11-01T20:25:00.803Z,56.91
2022-11-01T20:27:27.441Z,56.17
2022-11-01T20:29:54.068Z,56.58
2022-11-01T20:32:20.706Z,55.53
2022-11-01T20:34:47.291Z,56.53
2022-11-01T20:37:28.124Z,56.04
2022-11-01T20:39:55.326Z,55.45
2022-11-01T20:42:22.060Z,55.76
2022-11-01T20:44:48.665Z,55.44
2022-11-01T20:47:15.264Z,55.71
2022-11-01T20:49:41.975Z,55.52
2022-11-01T20:52:34.021Z,55.07
2022-11-01T20:54:55.268Z,54.83
2022-11-01T20:57:28.023Z,55.23
2022-11-01T20:59:56.798Z,54.64
2022-11-01T21:02:23.566Z,55.63
2022-11-01T21:04:59.722Z,55.04
2022-11-01T21:07:29.938Z,55.17
2022-11-01T21:09:57.153Z,55.69
2022-11-01T21:12:42.557Z,54.89
2022-11-01T21:15:34.207Z,54.81
2022-11-01T21:18:22.552Z,54.88
2022-11-01T21:20:49.466Z,55.26
2022-11-01T21:23:29.181Z,55.13
2022-11-01T21:25:59.161Z,55.66
2022-11-01T21:28:44.313Z,54.67
2022-11-01T21:31:10.865Z,54.97
2022-11-01T21:33:40.519Z,55.44
2022-11-01T21:36:41.482Z,54.08
2022-11-01T21:39:15.452Z,54.52
2022-11-01T21:41:44.861Z,54.18
2022-11-01T21:44:15.170Z,53.70
2022-11-01T21:46:46.037Z,53.06
2022-11-01T21:49:24.282Z,53.25
2022-11-01T21:51:51.446Z,52.91
2022-11-01T21:54:18.377Z,51.97
2022-11-01T21:56:45.136Z,51.42
2022-11-01T21:59:11.761Z,51.10
2022-11-01T22:01:43.226Z,50.75
2022-11-01T22:04:09.960Z,50.29
2022-11-01T22:06:36.688Z,50.11
2022-11-01T22:09:03.785Z,50.58
2022-11-01T22:11:32.708Z,50.98
2022-11-01T22:13:59.674Z,50.81
2022-11-01T22:16:26.552Z,50.83
2022-11-01T22:18:53.265Z,50.41
2022-11-01T22:21:20.028Z,50.44
2022-11-01T22:23:46.683Z,50.30
2022-11-01T22:26:13.379Z,49.61
2022-11-01T22:28:40.105Z,50.14
2022-11-01T22:31:06.827Z,49.68
2022-11-01T22:33:34.566Z,49.70
2022-11-01T22:36:02.488Z,50.08
2022-11-01T22:38:39.026Z,49.58
2022-11-01T22:41:19.528Z,49.22
2022-11-01T22:43:47.989Z,49.97
2022-11-01T22:46:25.913Z,50.23
2022-11-01T22:49:00.491Z,50.96
2022-11-01T22:51:39.156Z,50.25
2022-11-01T22:54:21.468Z,50.79
2022-11-01T22:56:58.068Z,50.46
2022-11-01T22:59:29.335Z,50.92
2022-11-01T23:02:07.399Z,51.02
2022-11-01T23:04:34.642Z,51.90
2022-11-01T23:07:02.605Z,51.85
2022-11-01T23:09:29.295Z,51.14
2022-11-01T23:12:15.935Z,51.80
2022-11-01T23:14:47.921Z,51.85
2022-11-01T23:17:22.012Z,50.52
2022-11-01T23:19:57.095Z,50.34
2022-11-01T23:22:26.768Z,51.02
2022-11-01T23:24:53.861Z,51.12
2022-11-01T23:27:22.090Z,50.83
2022-11-01T23:29:52.056Z,50.99
2022-11-01T23:32:19.025Z,50.86
2022-11-01T23:34:46.790Z,52.21
2022-11-01T23:37:18.216Z,52.22
2022-11-01T23:39:46.090Z,53.05
2022-11-01T23:42:25.723Z,51.35
2022-11-01T23:44:55.790Z,51.89
2022-11-01T23:47:41.663Z,52.62
2022-11-01T23:50:22.264Z,52.17
2022-11-01T23:53:00.460Z,51.75
2022-11-01T23:55:33.489Z,53.12
2022-11-01T23:58:05.553Z,53.90
